sensor_id;sensor_type;location;lat;lon;timestamp;pressure;altitude;pressure_sealevel;temperature;humidity
59104;BME280;51449;51.676;5.812;2022-11-22T00:01:01;99067.78;;;7.49;84.14
59104;BME280;51449;51.676;5.812;2022-11-22T00:03:24;99071.22;;;7.46;84.36
59104;BME280;51449;51.676;5.812;2022-11-22T00:05:46;99077.84;;;7.45;84.48
59104;BME280;51449;51.676;5.812;2022-11-22T00:08:08;99073.59;;;7.48;84.07
59104;BME280;51449;51.676;5.812;2022-11-22T00:10:31;99077.56;;;7.50;84.45
59104;BME280;51449;51.676;5.812;2022-11-22T00:12:53;99080.69;;;7.49;84.31
59104;BME280;51449;51.676;5.812;2022-11-22T00:15:15;99074.03;;;7.50;84.24
59104;BME280;51449;51.676;5.812;2022-11-22T00:17:37;99080.31;;;7.50;83.93
59104;BME280;51449;51.676;5.812;2022-11-22T00:19:59;99073.25;;;7.49;84.11
59104;BME280;51449;51.676;5.812;2022-11-22T00:22:21;99082.25;;;7.50;83.95
59104;BME280;51449;51.676;5.812;2022-11-22T00:24:43;99088.91;;;7.49;84.39
59104;BME280;51449;51.676;5.812;2022-11-22T00:27:06;99085.72;;;7.47;84.50
59104;BME280;51449;51.676;5.812;2022-11-22T00:29:28;99081.38;;;7.46;84.31
59104;BME280;51449;51.676;5.812;2022-11-22T00:31:50;99074.75;;;7.47;84.73
59104;BME280;51449;51.676;5.812;2022-11-22T00:34:12;99085.28;;;7.45;84.69
59104;BME280;51449;51.676;5.812;2022-11-22T00:36:34;99102.88;;;7.44;84.87
59104;BME280;51449;51.676;5.812;2022-11-22T00:38:56;99090.31;;;7.43;85.22
59104;BME280;51449;51.676;5.812;2022-11-22T00:41:18;99082.53;;;7.45;84.91
59104;BME280;51449;51.676;5.812;2022-11-22T00:43:40;99095.78;;;7.43;85.40
59104;BME280;51449;51.676;5.812;2022-11-22T00:46:01;99088.72;;;7.42;85.12
59104;BME280;51449;51.676;5.812;2022-11-22T00:48:23;99086.78;;;7.42;85.29
59104;BME280;51449;51.676;5.812;2022-11-22T00:50:48;99083.25;;;7.42;85.68
59104;BME280;51449;51.676;5.812;2022-11-22T00:53:10;99090.31;;;7.43;85.20
59104;BME280;51449;51.676;5.812;2022-11-22T00:55:32;99093.50;;;7.45;85.46
59104;BME280;51449;51.676;5.812;2022-11-22T00:57:54;99093.50;;;7.45;85.98
59104;BME280;51449;51.676;5.812;2022-11-22T01:00:16;99095.06;;;7.46;85.98
59104;BME280;51449;51.676;5.812;2022-11-22T01:02:38;99092.78;;;7.48;85.95
59104;BME280;51449;51.676;5.812;2022-11-22T01:05:00;99091.28;;;7.50;85.96
59104;BME280;51449;51.676;5.812;2022-11-22T01:07:22;99093.66;;;7.52;85.97
59104;BME280;51449;51.676;5.812;2022-11-22T01:09:44;99092.50;;;7.53;86.19
59104;BME280;51449;51.676;5.812;2022-11-22T01:12:05;99103.13;;;7.55;85.84
59104;BME280;51449;51.676;5.812;2022-11-22T01:14:27;99096.84;;;7.54;86.03
59104;BME280;51449;51.676;5.812;2022-11-22T01:16:49;99085.97;;;7.58;85.42
59104;BME280;51449;51.676;5.812;2022-11-22T01:19:12;99084.00;;;7.58;85.03
59104;BME280;51449;51.676;5.812;2022-11-22T01:21:34;99089.16;;;7.60;84.92
59104;BME280;51449;51.676;5.812;2022-11-22T01:23:56;99089.59;;;7.62;84.91
59104;BME280;51449;51.676;5.812;2022-11-22T01:26:18;99087.19;;;7.60;84.77
59104;BME280;51449;51.676;5.812;2022-11-22T01:28:39;99082.88;;;7.59;84.78
59104;BME280;51449;51.676;5.812;2022-11-22T01:31:01;99078.53;;;7.58;84.63
59104;BME280;51449;51.676;5.812;2022-11-22T01:33:23;99081.19;;;7.55;84.12
59104;BME280;51449;51.676;5.812;2022-11-22T01:35:45;99082.25;;;7.50;84.39
59104;BME280;51449;51.676;5.812;2022-11-22T01:38:08;99073.59;;;7.48;84.34
59104;BME280;51449;51.676;5.812;2022-11-22T01:40:30;99082.97;;;7.47;84.65
59104;BME280;51449;51.676;5.812;2022-11-22T01:42:55;99084.94;;;7.46;84.47
59104;BME280;51449;51.676;5.812;2022-11-22T01:47:52;99095.00;;;7.42;84.69
59104;BME280;51449;51.676;5.812;2022-11-22T01:50:15;99110.66;;;7.42;85.14
59104;BME280;51449;51.676;5.812;2022-11-22T01:52:38;99108.25;;;7.40;85.37
59104;BME280;51449;51.676;5.812;2022-11-22T01:55:08;99105.97;;;7.42;85.17
59104;BME280;51449;51.676;5.812;2022-11-22T01:57:35;99109.75;;;7.38;85.04
59104;BME280;51449;51.676;5.812;2022-11-22T02:00:06;99115.97;;;7.35;85.40
59104;BME280;51449;51.676;5.812;2022-11-22T02:02:38;99117.47;;;7.32;85.35
59104;BME280;51449;51.676;5.812;2022-11-22T02:05:03;99111.53;;;7.30;85.00
59104;BME280;51449;51.676;5.812;2022-11-22T02:07:37;99107.56;;;7.27;85.35
59104;BME280;51449;51.676;5.812;2022-11-22T02:10:07;99105.88;;;7.23;85.53
59104;BME280;51449;51.676;5.812;2022-11-22T02:12:30;99116.72;;;7.19;85.52
59104;BME280;51449;51.676;5.812;2022-11-22T02:14:53;99118.22;;;7.17;85.53
59104;BME280;51449;51.676;5.812;2022-11-22T02:17:16;99120.56;;;7.15;85.05
59104;BME280;51449;51.676;5.812;2022-11-22T02:19:46;99131.84;;;7.13;85.15
59104;BME280;51449;51.676;5.812;2022-11-22T02:27:36;99123.78;;;7.04;85.72
59104;BME280;51449;51.676;5.812;2022-11-22T02:29:58;99120.63;;;7.02;85.53
59104;BME280;51449;51.676;5.812;2022-11-22T02:32:20;99122.94;;;7.00;85.96
59104;BME280;51449;51.676;5.812;2022-11-22T02:34:44;99122.47;;;6.98;85.80
59104;BME280;51449;51.676;5.812;2022-11-22T02:37:09;99123.59;;;6.97;86.01
59104;BME280;51449;51.676;5.812;2022-11-22T02:39:33;99124.06;;;6.99;86.14
59104;BME280;51449;51.676;5.812;2022-11-22T02:41:55;99114.25;;;6.98;85.92
59104;BME280;51449;51.676;5.812;2022-11-22T02:44:19;99122.03;;;6.96;85.93
59104;BME280;51449;51.676;5.812;2022-11-22T02:46:50;99126.72;;;6.96;85.82
59104;BME280;51449;51.676;5.812;2022-11-22T02:49:22;99124.31;;;6.94;86.11
59104;BME280;51449;51.676;5.812;2022-11-22T02:51:45;99138.38;;;6.93;85.89
59104;BME280;51449;51.676;5.812;2022-11-22T02:54:07;99130.84;;;6.90;86.09
59104;BME280;51449;51.676;5.812;2022-11-22T02:56:29;99132.00;;;6.89;86.18
59104;BME280;51449;51.676;5.812;2022-11-22T02:58:51;99137.94;;;6.91;86.08
59104;BME280;51449;51.676;5.812;2022-11-22T03:01:13;99142.69;;;6.94;86.06
59104;BME280;51449;51.676;5.812;2022-11-22T03:03:35;99136.44;;;6.93;85.91
59104;BME280;51449;51.676;5.812;2022-11-22T03:05:57;99149.31;;;6.93;86.31
59104;BME280;51449;51.676;5.812;2022-11-22T03:08:19;99137.56;;;6.92;86.37
59104;BME280;51449;51.676;5.812;2022-11-22T03:10:41;99140.22;;;6.89;86.54
59104;BME280;51449;51.676;5.812;2022-11-22T03:13:03;99133.56;;;6.90;86.15
59104;BME280;51449;51.676;5.812;2022-11-22T03:15:24;99138.25;;;6.89;85.87
59104;BME280;51449;51.676;5.812;2022-11-22T03:17:46;99140.56;;;6.87;86.19
59104;BME280;51449;51.676;5.812;2022-11-22T03:20:09;99140.91;;;6.85;85.62
59104;BME280;51449;51.676;5.812;2022-11-22T03:22:31;99149.13;;;6.85;85.74
59104;BME280;51449;51.676;5.812;2022-11-22T03:24:53;99154.16;;;6.83;85.54
59104;BME280;51449;51.676;5.812;2022-11-22T03:27:15;99156.09;;;6.83;85.09
59104;BME280;51449;51.676;5.812;2022-11-22T03:29:39;99163.88;;;6.81;85.19
59104;BME280;51449;51.676;5.812;2022-11-22T03:32:01;99156.78;;;6.80;85.17
59104;BME280;51449;51.676;5.812;2022-11-22T03:34:23;99158.72;;;6.79;85.02
59104;BME280;51449;51.676;5.812;2022-11-22T03:36:45;99151.69;;;6.78;84.67
59104;BME280;51449;51.676;5.812;2022-11-22T03:39:07;99159.78;;;6.75;84.51
59104;BME280;51449;51.676;5.812;2022-11-22T03:41:29;99158.91;;;6.71;84.67
59104;BME280;51449;51.676;5.812;2022-11-22T03:43:51;99167.00;;;6.67;84.54
59104;BME280;51449;51.676;5.812;2022-11-22T03:46:17;99171.69;;;6.67;84.70
59104;BME280;51449;51.676;5.812;2022-11-22T03:48:42;99166.91;;;6.63;84.70
59104;BME280;51449;51.676;5.812;2022-11-22T03:51:05;99164.06;;;6.60;84.35
59104;BME280;51449;51.676;5.812;2022-11-22T03:53:27;99165.22;;;6.59;84.38
59104;BME280;51449;51.676;5.812;2022-11-22T03:55:49;99171.03;;;6.57;84.83
59104;BME280;51449;51.676;5.812;2022-11-22T03:58:11;99175.72;;;6.57;84.13
59104;BME280;51449;51.676;5.812;2022-11-22T04:00:33;99168.19;;;6.54;84.25
59104;BME280;51449;51.676;5.812;2022-11-22T04:02:56;99182.22;;;6.52;84.02
59104;BME280;51449;51.676;5.812;2022-11-22T04:05:17;99175.59;;;6.53;83.61
59104;BME280;51449;51.676;5.812;2022-11-22T04:07:39;99174.34;;;6.51;83.94
59104;BME280;51449;51.676;5.812;2022-11-22T04:10:03;99185.66;;;6.49;83.54
59104;BME280;51449;51.676;5.812;2022-11-22T04:12:28;99188.72;;;6.48;83.91
59104;BME280;51449;51.676;5.812;2022-11-22T04:14:50;99181.91;;;6.41;83.93
59104;BME280;51449;51.676;5.812;2022-11-22T04:17:27;99182.94;;;6.37;83.89
59104;BME280;51449;51.676;5.812;2022-11-22T04:20:01;99198.22;;;6.38;83.73
59104;BME280;51449;51.676;5.812;2022-11-22T04:22:42;99203.22;;;6.36;83.45
59104;BME280;51449;51.676;5.812;2022-11-22T04:25:04;99203.91;;;6.33;83.93
59104;BME280;51449;51.676;5.812;2022-11-22T04:28:40;99203.47;;;6.31;83.63
59104;BME280;51449;51.676;5.812;2022-11-22T04:31:22;99203.38;;;6.27;83.64
59104;BME280;51449;51.676;5.812;2022-11-22T04:34:03;99201.31;;;6.24;83.19
59104;BME280;51449;51.676;5.812;2022-11-22T04:36:25;99197.00;;;6.23;82.76
59104;BME280;51449;51.676;5.812;2022-11-22T04:38:47;99201.22;;;6.20;83.18
59104;BME280;51449;51.676;5.812;2022-11-22T04:41:09;99203.16;;;6.20;83.04
59104;BME280;51449;51.676;5.812;2022-11-22T04:43:31;99206.59;;;6.17;83.60
59104;BME280;51449;51.676;5.812;2022-11-22T04:46:13;99201.00;;;6.13;83.25
59104;BME280;51449;51.676;5.812;2022-11-22T04:48:36;99207.94;;;6.11;83.12
59104;BME280;51449;51.676;5.812;2022-11-22T04:53:47;99225.28;;;6.03;83.64
59104;BME280;51449;51.676;5.812;2022-11-22T04:59:34;99227.78;;;5.95;83.68
59104;BME280;51449;51.676;5.812;2022-11-22T05:04:30;99214.75;;;5.92;83.47
59104;BME280;51449;51.676;5.812;2022-11-22T05:10:14;99211.44;;;5.87;82.93
59104;BME280;51449;51.676;5.812;2022-11-22T05:17:08;99227.28;;;5.81;83.34
59104;BME280;51449;51.676;5.812;2022-11-22T05:28:30;99242.06;;;5.68;82.75
59104;BME280;51449;51.676;5.812;2022-11-22T05:40:43;99235.69;;;5.51;83.15
59104;BME280;51449;51.676;5.812;2022-11-22T05:47:58;99232.13;;;5.51;82.93
59104;BME280;51449;51.676;5.812;2022-11-22T05:50:30;99229.75;;;5.49;83.59
59104;BME280;51449;51.676;5.812;2022-11-22T05:53:01;99220.78;;;5.49;82.79
59104;BME280;51449;51.676;5.812;2022-11-22T05:55:34;99222.69;;;5.48;82.73
59104;BME280;51449;51.676;5.812;2022-11-22T06:07:18;99229.75;;;5.37;83.17
59104;BME280;51449;51.676;5.812;2022-11-22T06:09:43;99229.59;;;5.33;83.03
59104;BME280;51449;51.676;5.812;2022-11-22T06:12:05;99228.34;;;5.31;83.64
59104;BME280;51449;51.676;5.812;2022-11-22T06:14:28;99231.53;;;5.33;83.59
59104;BME280;51449;51.676;5.812;2022-11-22T06:21:31;99236.06;;;5.29;83.70
59104;BME280;51449;51.676;5.812;2022-11-22T06:23:54;99244.25;;;5.29;83.54
59104;BME280;51449;51.676;5.812;2022-11-22T06:26:18;99249.72;;;5.29;82.96
59104;BME280;51449;51.676;5.812;2022-11-22T06:28:44;99251.56;;;5.25;83.41
59104;BME280;51449;51.676;5.812;2022-11-22T06:31:16;99248.16;;;5.28;83.44
59104;BME280;51449;51.676;5.812;2022-11-22T06:33:41;99253.28;;;5.29;82.96
59104;BME280;51449;51.676;5.812;2022-11-22T06:36:09;99243.00;;;5.26;83.08
59104;BME280;51449;51.676;5.812;2022-11-22T06:38:33;99236.75;;;5.26;83.08
59104;BME280;51449;51.676;5.812;2022-11-22T06:41:04;99252.81;;;5.27;83.17
59104;BME280;51449;51.676;5.812;2022-11-22T06:43:29;99244.47;;;5.24;82.71
59104;BME280;51449;51.676;5.812;2022-11-22T06:45:55;99246.75;;;5.22;83.07
59104;BME280;51449;51.676;5.812;2022-11-22T06:48:17;99248.34;;;5.23;82.99
59104;BME280;51449;51.676;5.812;2022-11-22T06:50:39;99245.63;;;5.23;82.93
59104;BME280;51449;51.676;5.812;2022-11-22T06:53:01;99242.91;;;5.23;82.71
59104;BME280;51449;51.676;5.812;2022-11-22T06:55:23;99249.63;;;5.25;82.87
59104;BME280;51449;51.676;5.812;2022-11-22T06:58:05;99263.13;;;5.22;82.99
59104;BME280;51449;51.676;5.812;2022-11-22T07:00:26;99270.19;;;5.23;82.68
59104;BME280;51449;51.676;5.812;2022-11-22T07:02:48;99263.47;;;5.20;82.41
59104;BME280;51449;51.676;5.812;2022-11-22T07:05:10;99260.28;;;5.18;82.09
59104;BME280;51449;51.676;5.812;2022-11-22T07:07:48;99267.22;;;5.15;82.46
59104;BME280;51449;51.676;5.812;2022-11-22T07:10:10;99278.13;;;5.15;82.37
59104;BME280;51449;51.676;5.812;2022-11-22T07:12:32;99276.56;;;5.14;82.31
59104;BME280;51449;51.676;5.812;2022-11-22T07:14:54;99281.19;;;5.14;82.00
59104;BME280;51449;51.676;5.812;2022-11-22T07:17:16;99274.00;;;5.09;82.41
59104;BME280;51449;51.676;5.812;2022-11-22T07:19:38;99281.06;;;5.10;82.55
59104;BME280;51449;51.676;5.812;2022-11-22T07:21:59;99288.59;;;5.13;82.28
59104;BME280;51449;51.676;5.812;2022-11-22T07:24:21;99286.53;;;5.10;82.26
59104;BME280;51449;51.676;5.812;2022-11-22T07:26:43;99296.31;;;5.11;82.41
59104;BME280;51449;51.676;5.812;2022-11-22T07:29:05;99297.56;;;5.14;82.57
59104;BME280;51449;51.676;5.812;2022-11-22T07:31:27;99307.50;;;5.19;82.76
59104;BME280;51449;51.676;5.812;2022-11-22T07:33:49;99304.22;;;5.25;82.96
59104;BME280;51449;51.676;5.812;2022-11-22T07:36:17;99290.47;;;5.34;83.15
59104;BME280;51449;51.676;5.812;2022-11-22T07:38:40;99311.00;;;5.40;83.17
59104;BME280;51449;51.676;5.812;2022-11-22T07:41:03;99317.03;;;5.46;83.34
59104;BME280;51449;51.676;5.812;2022-11-22T07:43:26;99317.16;;;5.49;83.38
59104;BME280;51449;51.676;5.812;2022-11-22T07:45:49;99309.88;;;5.53;83.78
59104;BME280;51449;51.676;5.812;2022-11-22T07:48:11;99317.53;;;5.60;83.83
59104;BME280;51449;51.676;5.812;2022-11-22T07:50:35;99320.88;;;5.66;83.74
59104;BME280;51449;51.676;5.812;2022-11-22T07:52:57;99319.03;;;5.70;84.04
59104;BME280;51449;51.676;5.812;2022-11-22T07:55:20;99317.69;;;5.76;83.19
59104;BME280;51449;51.676;5.812;2022-11-22T07:57:42;99313.03;;;5.76;83.42
59104;BME280;51449;51.676;5.812;2022-11-22T08:00:04;99313.94;;;5.81;83.04
59104;BME280;51449;51.676;5.812;2022-11-22T08:02:26;99307.00;;;5.83;83.56
59104;BME280;51449;51.676;5.812;2022-11-22T08:04:48;99310.63;;;5.87;83.34
59104;BME280;51449;51.676;5.812;2022-11-22T08:07:10;99320.56;;;5.92;83.60
59104;BME280;51449;51.676;5.812;2022-11-22T08:09:33;99310.59;;;5.96;83.27
59104;BME280;51449;51.676;5.812;2022-11-22T08:11:54;99321.97;;;5.98;82.80
59104;BME280;51449;51.676;5.812;2022-11-22T08:14:17;99314.25;;;6.00;82.99
59104;BME280;51449;51.676;5.812;2022-11-22T08:16:38;99310.91;;;6.07;82.31
59104;BME280;51449;51.676;5.812;2022-11-22T08:19:01;99305.59;;;6.10;82.13
59104;BME280;51449;51.676;5.812;2022-11-22T08:21:23;99306.03;;;6.12;82.26
59104;BME280;51449;51.676;5.812;2022-11-22T08:23:45;99316.28;;;6.15;82.32
59104;BME280;51449;51.676;5.812;2022-11-22T08:26:10;99320.75;;;6.20;81.53
59104;BME280;51449;51.676;5.812;2022-11-22T08:28:34;99317.31;;;6.23;81.04
59104;BME280;51449;51.676;5.812;2022-11-22T08:31:01;99319.50;;;6.30;81.27
59104;BME280;51449;51.676;5.812;2022-11-22T08:33:31;99316.53;;;6.35;81.94
59104;BME280;51449;51.676;5.812;2022-11-22T08:35:53;99321.63;;;6.36;81.34
59104;BME280;51449;51.676;5.812;2022-11-22T08:38:15;99316.38;;;6.43;81.10
59104;BME280;51449;51.676;5.812;2022-11-22T08:40:46;99311.03;;;6.47;81.75
59104;BME280;51449;51.676;5.812;2022-11-22T08:43:10;99315.50;;;6.52;80.68
59104;BME280;51449;51.676;5.812;2022-11-22T08:45:32;99313.63;;;6.56;80.63
59104;BME280;51449;51.676;5.812;2022-11-22T08:47:56;99319.25;;;6.59;81.02
59104;BME280;51449;51.676;5.812;2022-11-22T08:50:19;99318.22;;;6.64;80.29
59104;BME280;51449;51.676;5.812;2022-11-22T08:52:41;99319.56;;;6.70;80.87
59104;BME280;51449;51.676;5.812;2022-11-22T08:55:03;99312.34;;;6.78;81.24
59104;BME280;51449;51.676;5.812;2022-11-22T08:57:25;99319.97;;;6.84;80.58
59104;BME280;51449;51.676;5.812;2022-11-22T08:59:47;99326.38;;;6.89;80.04
59104;BME280;51449;51.676;5.812;2022-11-22T09:02:09;99330.44;;;6.95;80.06
59104;BME280;51449;51.676;5.812;2022-11-22T09:04:31;99334.81;;;6.96;80.11
59104;BME280;51449;51.676;5.812;2022-11-22T09:06:53;99327.91;;;7.02;79.79
59104;BME280;51449;51.676;5.812;2022-11-22T09:09:35;99335.47;;;7.05;79.81
59104;BME280;51449;51.676;5.812;2022-11-22T09:11:58;99339.44;;;7.07;79.67
59104;BME280;51449;51.676;5.812;2022-11-22T09:14:20;99334.75;;;7.08;79.47
59104;BME280;51449;51.676;5.812;2022-11-22T09:16:42;99334.50;;;7.13;79.21
59104;BME280;51449;51.676;5.812;2022-11-22T09:19:04;99343.97;;;7.16;78.65
59104;BME280;51449;51.676;5.812;2022-11-22T09:21:26;99341.56;;;7.14;78.86
59104;BME280;51449;51.676;5.812;2022-11-22T09:23:49;99343.19;;;7.15;78.94
59104;BME280;51449;51.676;5.812;2022-11-22T09:26:19;99340.44;;;7.15;78.56
59104;BME280;51449;51.676;5.812;2022-11-22T10:08:32;99333.13;;;7.76;76.94
59104;BME280;51449;51.676;5.812;2022-11-22T10:30:05;99323.13;;;7.99;75.73
59104;BME280;51449;51.676;5.812;2022-11-22T10:40:02;99330.47;;;7.95;75.41
59104;BME280;51449;51.676;5.812;2022-11-22T11:04:58;99305.00;;;8.10;75.80
59104;BME280;51449;51.676;5.812;2022-11-22T11:07:25;99286.41;;;8.20;75.65
59104;BME280;51449;51.676;5.812;2022-11-22T11:10:15;99288.50;;;8.26;75.34
59104;BME280;51449;51.676;5.812;2022-11-22T11:13:22;99288.16;;;8.28;75.24
59104;BME280;51449;51.676;5.812;2022-11-22T11:15:51;99281.16;;;8.30;75.24
59104;BME280;51449;51.676;5.812;2022-11-22T11:18:21;99279.75;;;8.36;74.72
59104;BME280;51449;51.676;5.812;2022-11-22T11:20:56;99278.69;;;8.41;74.85
59104;BME280;51449;51.676;5.812;2022-11-22T11:23:18;99291.28;;;8.42;73.66
59104;BME280;51449;51.676;5.812;2022-11-22T11:25:42;99277.56;;;8.42;73.47
59104;BME280;51449;51.676;5.812;2022-11-22T11:28:15;99273.81;;;8.50;73.66
59104;BME280;51449;51.676;5.812;2022-11-22T11:30:41;99271.94;;;8.54;73.24
59104;BME280;51449;51.676;5.812;2022-11-22T11:33:20;99275.56;;;8.59;72.82
59104;BME280;51449;51.676;5.812;2022-11-22T11:35:51;99271.72;;;8.63;72.92
59104;BME280;51449;51.676;5.812;2022-11-22T11:38:32;99263.13;;;8.65;72.11
59104;BME280;51449;51.676;5.812;2022-11-22T11:41:22;99262.41;;;8.68;72.60
59104;BME280;51449;51.676;5.812;2022-11-22T11:43:45;99264.09;;;8.72;72.55
59104;BME280;51449;51.676;5.812;2022-11-22T11:46:59;99268.06;;;8.75;71.98
59104;BME280;51449;51.676;5.812;2022-11-22T11:51:38;99268.50;;;8.77;71.88
59104;BME280;51449;51.676;5.812;2022-11-22T11:54:13;99261.88;;;8.78;71.72
59104;BME280;51449;51.676;5.812;2022-11-22T11:59:18;99256.78;;;8.80;72.17
59104;BME280;51449;51.676;5.812;2022-11-22T12:04:59;99261.00;;;8.74;71.93
59104;BME280;51449;51.676;5.812;2022-11-22T12:07:46;99258.53;;;8.69;71.41
59104;BME280;51449;51.676;5.812;2022-11-22T12:13:09;99266.34;;;8.67;71.92
59104;BME280;51449;51.676;5.812;2022-11-22T12:21:28;99267.41;;;8.62;71.84
59104;BME280;51449;51.676;5.812;2022-11-22T12:24:12;99278.66;;;8.57;71.57
59104;BME280;51449;51.676;5.812;2022-11-22T12:26:58;99277.34;;;8.51;70.79
59104;BME280;51449;51.676;5.812;2022-11-22T12:29:20;99269.09;;;8.51;70.85
59104;BME280;51449;51.676;5.812;2022-11-22T12:31:48;99278.59;;;8.53;71.24
59104;BME280;51449;51.676;5.812;2022-11-22T12:34:16;99269.38;;;8.46;70.24
59104;BME280;51449;51.676;5.812;2022-11-22T12:36:52;99278.06;;;8.48;70.78
59104;BME280;51449;51.676;5.812;2022-11-22T12:39:26;99267.47;;;8.46;71.13
59104;BME280;51449;51.676;5.812;2022-11-22T12:41:53;99262.81;;;8.50;71.42
59104;BME280;51449;51.676;5.812;2022-11-22T12:44:35;99257.88;;;8.56;71.77
59104;BME280;51449;51.676;5.812;2022-11-22T12:47:06;99259.81;;;8.55;71.33
59104;BME280;51449;51.676;5.812;2022-11-22T12:49:40;99269.19;;;8.54;71.23
59104;BME280;51449;51.676;5.812;2022-11-22T12:52:11;99262.97;;;8.57;71.19
59104;BME280;51449;51.676;5.812;2022-11-22T12:54:41;99260.25;;;8.57;71.17
59104;BME280;51449;51.676;5.812;2022-11-22T13:00:31;99269.72;;;8.60;71.74
59104;BME280;51449;51.676;5.812;2022-11-22T13:03:29;99265.44;;;8.63;71.65
59104;BME280;51449;51.676;5.812;2022-11-22T13:06:06;99265.00;;;8.61;71.41
59104;BME280;51449;51.676;5.812;2022-11-22T13:08:46;99257.59;;;8.61;71.42
59104;BME280;51449;51.676;5.812;2022-11-22T13:11:26;99255.19;;;8.60;71.17
59104;BME280;51449;51.676;5.812;2022-11-22T13:14:02;99248.63;;;8.64;71.12
59104;BME280;51449;51.676;5.812;2022-11-22T13:16:28;99248.28;;;8.66;71.58
59104;BME280;51449;51.676;5.812;2022-11-22T13:18:54;99256.22;;;8.71;71.42
59104;BME280;51449;51.676;5.812;2022-11-22T13:21:59;99256.28;;;8.74;71.68
59104;BME280;51449;51.676;5.812;2022-11-22T13:27:16;99261.88;;;8.78;71.74
59104;BME280;51449;51.676;5.812;2022-11-22T13:29:46;99250.88;;;8.78;72.03
59104;BME280;51449;51.676;5.812;2022-11-22T13:32:18;99252.13;;;8.81;71.88
59104;BME280;51449;51.676;5.812;2022-11-22T13:37:36;99254.56;;;8.86;71.80
59104;BME280;51449;51.676;5.812;2022-11-22T13:42:37;99253.50;;;8.90;71.83
59104;BME280;51449;51.676;5.812;2022-11-22T13:47:42;99252.41;;;8.95;71.80
59104;BME280;51449;51.676;5.812;2022-11-22T13:52:57;99248.84;;;8.94;71.55
59104;BME280;51449;51.676;5.812;2022-11-22T13:55:39;99248.06;;;8.94;71.37
59104;BME280;51449;51.676;5.812;2022-11-22T14:00:45;99241.34;;;8.91;71.60
59104;BME280;51449;51.676;5.812;2022-11-22T14:05:56;99238.16;;;8.89;71.60
59104;BME280;51449;51.676;5.812;2022-11-22T14:08:36;99240.16;;;8.92;71.55
59104;BME280;51449;51.676;5.812;2022-11-22T14:11:21;99241.78;;;8.93;71.82
59104;BME280;51449;51.676;5.812;2022-11-22T14:14:14;99244.88;;;8.92;71.96
59104;BME280;51449;51.676;5.812;2022-11-22T14:26:19;99240.16;;;8.92;71.90
59104;BME280;51449;51.676;5.812;2022-11-22T14:29:15;99245.66;;;8.92;71.97
59104;BME280;51449;51.676;5.812;2022-11-22T14:31:59;99240.56;;;8.91;72.08
59104;BME280;51449;51.676;5.812;2022-11-22T14:34:27;99235.41;;;8.89;71.42
59104;BME280;51449;51.676;5.812;2022-11-22T14:44:56;99238.53;;;8.88;72.09
59104;BME280;51449;51.676;5.812;2022-11-22T14:47:20;99234.56;;;8.85;71.86
59104;BME280;51449;51.676;5.812;2022-11-22T14:49:44;99235.25;;;8.82;72.08
59104;BME280;51449;51.676;5.812;2022-11-22T14:52:20;99232.06;;;8.80;72.06
59104;BME280;51449;51.676;5.812;2022-11-22T14:54:48;99223.50;;;8.82;72.21
59104;BME280;51449;51.676;5.812;2022-11-22T14:57:19;99229.78;;;8.82;72.36
59104;BME280;51449;51.676;5.812;2022-11-22T15:00:06;99229.78;;;8.82;72.19
59104;BME280;51449;51.676;5.812;2022-11-22T15:03:15;99223.13;;;8.83;72.28
59104;BME280;51449;51.676;5.812;2022-11-22T15:06:16;99229.06;;;8.85;72.45
59104;BME280;51449;51.676;5.812;2022-11-22T15:21:23;99240.69;;;8.78;72.70
59104;BME280;51449;51.676;5.812;2022-11-22T15:24:25;99249.28;;;8.77;72.91
59104;BME280;51449;51.676;5.812;2022-11-22T15:27:28;99251.53;;;8.71;72.67
59104;BME280;51449;51.676;5.812;2022-11-22T15:30:18;99253.38;;;8.67;73.40
59104;BME280;51449;51.676;5.812;2022-11-22T15:33:02;99260.41;;;8.65;73.72
59104;BME280;51449;51.676;5.812;2022-11-22T15:39:15;99263.66;;;8.70;73.98
59104;BME280;51449;51.676;5.812;2022-11-22T15:42:03;99264.38;;;8.67;74.16
59104;BME280;51449;51.676;5.812;2022-11-22T15:44:55;99275.19;;;8.60;75.27
59104;BME280;51449;51.676;5.812;2022-11-22T15:47:37;99282.56;;;8.56;75.46
59104;BME280;51449;51.676;5.812;2022-11-22T15:50:20;99280.91;;;8.51;76.08
59104;BME280;51449;51.676;5.812;2022-11-22T15:53:19;99275.75;;;8.50;76.31
59104;BME280;51449;51.676;5.812;2022-11-22T15:56:36;99274.59;;;8.51;76.49
59104;BME280;51449;51.676;5.812;2022-11-22T15:59:37;99276.56;;;8.50;76.69
59104;BME280;51449;51.676;5.812;2022-11-22T16:02:01;99271.06;;;8.50;76.96
59104;BME280;51449;51.676;5.812;2022-11-22T16:10:24;99273.19;;;8.41;78.04
59104;BME280;51449;51.676;5.812;2022-11-22T16:12:53;99278.25;;;8.39;78.92
59104;BME280;51449;51.676;5.812;2022-11-22T16:17:53;99279.31;;;8.34;79.25
59104;BME280;51449;51.676;5.812;2022-11-22T16:20:31;99289.50;;;8.34;79.29
59104;BME280;51449;51.676;5.812;2022-11-22T16:25:34;99285.16;;;8.33;79.69
59104;BME280;51449;51.676;5.812;2022-11-22T16:28:00;99295.34;;;8.32;79.58
59104;BME280;51449;51.676;5.812;2022-11-22T16:30:27;99295.69;;;8.31;80.20
59104;BME280;51449;51.676;5.812;2022-11-22T16:32:49;99296.41;;;8.28;80.62
59104;BME280;51449;51.676;5.812;2022-11-22T16:35:15;99293.66;;;8.28;80.35
59104;BME280;51449;51.676;5.812;2022-11-22T16:37:50;99293.22;;;8.26;80.79
59104;BME280;51449;51.676;5.812;2022-11-22T16:40:12;99301.00;;;8.24;80.83
59104;BME280;51449;51.676;5.812;2022-11-22T16:42:37;99295.94;;;8.26;81.20
59104;BME280;51449;51.676;5.812;2022-11-22T16:44:59;99292.88;;;8.27;81.36
59104;BME280;51449;51.676;5.812;2022-11-22T16:47:25;99299.13;;;8.28;81.52
59104;BME280;51449;51.676;5.812;2022-11-22T16:49:47;99290.56;;;8.29;81.12
59104;BME280;51449;51.676;5.812;2022-11-22T16:52:10;99288.94;;;8.28;81.15
59104;BME280;51449;51.676;5.812;2022-11-22T16:54:33;99299.59;;;8.30;81.37
59104;BME280;51449;51.676;5.812;2022-11-22T16:56:55;99300.72;;;8.29;81.76
59104;BME280;51449;51.676;5.812;2022-11-22T16:59:16;99307.03;;;8.29;81.91
59104;BME280;51449;51.676;5.812;2022-11-22T17:01:40;99296.13;;;8.33;81.65
59104;BME280;51449;51.676;5.812;2022-11-22T17:04:03;99295.34;;;8.32;81.59
59104;BME280;51449;51.676;5.812;2022-11-22T17:06:27;99301.59;;;8.33;82.05
59104;BME280;51449;51.676;5.812;2022-11-22T17:08:52;99300.38;;;8.30;81.82